Kyokuhoumaru No.12 — JL5963 — position and weather

sailwx.info

Track history (hours):
 
Tides and Currents Weather Stations Pressure Air Temp Water Temp Dewpoint Dewpoint Depression Visibility Wind Speed Wind Dir Waves Ship Positions

Kyokuhoumaru No.12

Last reported at 2017-Nov-11 06:57 UTC. Time now 2017-Nov-20 01:49 UTC.
Position N 35°06' E 139°39'.
Warning: this ship's position is 8 days out of date.

Length 57 m.

Type: Tanker. MMSI: 431500879.

Date/timePositionNaut miles runAvg speedWind from/ knotsBaromVisibWave heightAir tempDewpointWater temp
2017-Nov-11 06:57N 35°06' E 139°39'4 9.5
2017-Nov-11 06:30N 35°08' E 139°43'4 8.9
2017-Nov-11 06:00N 35°12' E 139°46'5 8.6
2017-Nov-11 05:26N 35°17' E 139°45'4 9.3
2017-Nov-11 05:00N 35°21' E 139°42'5 8.9
2017-Nov-11 04:29N 35°25' E 139°44'2 0.1
2017-Nov-10 05:18N 35°23' E 139°46'3 8.7
2017-Nov-10 04:56N 35°20' E 139°44'3 7.9
2017-Nov-10 04:31N 35°17' E 139°46'4 8.1
2017-Nov-10 03:58N 35°13' E 139°47'4 8.8
2017-Nov-10 03:30N 35°09' E 139°46'4 8.8
2017-Nov-10 03:00N 35°06' E 139°42'  
2017-Nov-05 21:54N 34°32' E 135°19'3 5.8
2017-Nov-05 21:27N 34°31' E 135°17'4 8.9
2017-Nov-05 21:00N 34°28' E 135°13'221 6.0
2017-Nov-04 08:01N 35°06' E 139°38'0 9.6
2017-Nov-04 07:59N 35°06' E 139°39'4 8.7
2017-Nov-04 07:30N 35°08' E 139°43'4 8.9
2017-Nov-04 07:00N 35°12' E 139°46'5 8.2
2017-Nov-04 06:21N 35°17' E 139°45'3 8.9
2017-Nov-04 05:59N 35°20' E 139°43'4 8.5
2017-Nov-04 05:30N 35°24' E 139°43'2 0.1
2017-Nov-02 05:17N 35°23' E 139°46'3 8.5
2017-Nov-02 04:57N 35°21' E 139°45'4 8.2
2017-Nov-02 04:27N 35°17' E 139°46'4 8.2
2017-Nov-02 04:00N 35°13' E 139°47'4 8.2
2017-Nov-02 03:29N 35°09' E 139°46'4 7.6
2017-Nov-02 03:00N 35°06' E 139°43'6 7.6
2017-Nov-02 02:16N 35°02' E 139°38'  
Track history (hours):
 
Tides and Currents Weather Stations Pressure Air Temp Water Temp Dewpoint Dewpoint Depression Visibility Wind Speed Wind Dir Waves Ship Positions

Kyokuhoumaru No.12

Last reported at 2017-Nov-11 06:57 UTC. Time now 2017-Nov-20 01:49 UTC.
Position N 35°06' E 139°39'.
Warning: this ship's position is 8 days out of date.

Length 57 m.

Type: Tanker. MMSI: 431500879.

Date/timePositionNaut miles runAvg speedWind from/ knotsBaromVisibWave heightAir tempDewpointWater temp
2017-Nov-11 06:57N 35°06' E 139°39'4 9.5
2017-Nov-11 06:30N 35°08' E 139°43'4 8.9
2017-Nov-11 06:00N 35°12' E 139°46'5 8.6
2017-Nov-11 05:26N 35°17' E 139°45'4 9.3
2017-Nov-11 05:00N 35°21' E 139°42'5 8.9
2017-Nov-11 04:29N 35°25' E 139°44'2 0.1
2017-Nov-10 05:18N 35°23' E 139°46'3 8.7
2017-Nov-10 04:56N 35°20' E 139°44'3 7.9
2017-Nov-10 04:31N 35°17' E 139°46'4 8.1
2017-Nov-10 03:58N 35°13' E 139°47'4 8.8
2017-Nov-10 03:30N 35°09' E 139°46'4 8.8
2017-Nov-10 03:00N 35°06' E 139°42'  
2017-Nov-05 21:54N 34°32' E 135°19'3 5.8
2017-Nov-05 21:27N 34°31' E 135°17'4 8.9
2017-Nov-05 21:00N 34°28' E 135°13'221 6.0
2017-Nov-04 08:01N 35°06' E 139°38'0 9.6
2017-Nov-04 07:59N 35°06' E 139°39'4 8.7
2017-Nov-04 07:30N 35°08' E 139°43'4 8.9
2017-Nov-04 07:00N 35°12' E 139°46'5 8.2
2017-Nov-04 06:21N 35°17' E 139°45'3 8.9
2017-Nov-04 05:59N 35°20' E 139°43'4 8.5
2017-Nov-04 05:30N 35°24' E 139°43'2 0.1
2017-Nov-02 05:17N 35°23' E 139°46'3 8.5
2017-Nov-02 04:57N 35°21' E 139°45'4 8.2
2017-Nov-02 04:27N 35°17' E 139°46'4 8.2
2017-Nov-02 04:00N 35°13' E 139°47'4 8.2
2017-Nov-02 03:29N 35°09' E 139°46'4 7.6
2017-Nov-02 03:00N 35°06' E 139°43'6 7.6
2017-Nov-02 02:16N 35°02' E 139°38'  

Dump ship's entire track history